Pagina principale
METAR-TAF:

METAR-TAF

Aeroporti :

Marham, Inghilterra

latitudine: 52-39N, longitudine: 000-34E, altezza: 23 m

Osservazione

Il bollettino è stato emesso 49 minuti fa, alle 00:50 UTC
Vento 5 kt da nord-est
Temperature 11°C
Umidità 82%
Pressione 1024 hPa
Visibilità 10 km o più

METAR: EGYM 310050Z AUTO 05005KT 9999 NCD 11/08 Q1024

Ora: 02:39 (01:39 UTC)

Previsione

Il bollettino è stato emesso 12 ore e 6 minuti fa, alle 13:33 UTC
Previsione valida dal 30 alle 15 UTC al 30 alle 18 UTC
Vento 12 kt da est
Visibilità 10 km o più
nessuna nube inferiore a 1500 m e nessun cumulonembo

TAF: EGYM 301333Z 3015/3018 09012KT CAVOK

Osservazioni e previsioni meteorologiche di più di 4000 aeroporti (messaggi METAR e TAF).

Le stazioni disponibili sono rappresentate dai dischi gialli e rossi sulla carta.

Puntare il mouse per vedere il nome della stazione.

Clicca sopra per visualizzare le osservazioni e previsioni meteorologiche.

Per cambiare la mappa : fare clic sui pulsanti verdi con una croce nera per ingrandire, il pulsante verde con un trattino per diminuire, o sulla freccia verde per le mappe adiacenti.


METAR-TAF: